Time;durP1;ratioP1;P1;durP2;ratioP2;P2;SDS_P1;SDS_P2;PMS_P1;PMS_P2;Temp;Humidity;BMP_temperature;BMP_pressure;BME280_temperature;BME280_humidity;BME280_pressure;Samples;Min_cycle;Max_cycle;Signal;HPM_P1;HPM_P2
2022/04/11 06:03:38;;;;;;;3.58;2.38;;;;;;;;;;10680060;27;20432;-84
2022/04/11 06:08:39;;;;;;;4.57;2.60;;;;;;;;;;10640247;28;20092;-82
2022/04/11 06:13:45;;;;;;;3.97;2.47;;;;;;;;;;10635373;28;20538;-82
2022/04/11 06:18:46;;;;;;;4.88;2.80;;;;;;;;;;10640502;27;20102;-83
2022/04/11 06:23:47;;;;;;;4.25;2.50;;;;;;;;;;10639834;28;20028;-83
2022/04/11 06:28:48;;;;;;;4.95;2.95;;;;;;;;;;10655463;28;20046;-83
2022/04/11 06:33:49;;;;;;;;;;;;;;;;;;10647143;28;20027;-82
2022/04/11 06:38:50;;;;;;;4.22;2.63;;;;;;;;;;10650121;28;19958;-82
2022/04/11 06:43:51;;;;;;;;;;;;;;;;;;10642281;28;20493;-84
2022/04/11 06:48:52;;;;;;;5.63;2.80;;;;;;;;;;10640146;28;20015;-81
2022/04/11 06:53:53;;;;;;;;;;;;;;;;;;10633162;28;20040;-82
2022/04/11 06:58:54;;;;;;;5.50;2.97;;;;;;;;;;10634465;28;19908;-83
2022/04/11 07:03:56;;;;;;;;;;;;;;;;;;10650676;28;20035;-81
2022/04/11 07:08:58;;;;;;;4.57;2.60;;;;;;;;;;10650259;28;19915;-83
2022/04/11 07:14:16;;;;;;;4.30;2.60;;;;;;;;;;10616806;28;20057;-82
2022/04/11 07:19:17;;;;;;;;;;;;;;;;;;10609721;28;20042;-84
2022/04/11 07:24:18;;;;;;;5.93;2.40;;;;;;;;;;10607292;28;19923;-84
2022/04/11 07:29:19;;;;;;;4.38;2.35;;;;;;;;;;10605720;28;20027;-83
2022/04/11 07:34:20;;;;;;;;;;;;;;;;;;10606147;28;20409;-84
2022/04/11 07:39:23;;;;;;;4.35;2.78;;;;;;;;;;10601625;28;19910;-84
2022/04/11 07:44:24;;;;;;;4.53;2.75;;;;;;;;;;10599365;28;20164;-84
2022/04/11 07:49:26;;;;;;;6.35;4.00;;;;;;;;;;10610003;28;20027;-83
2022/04/11 07:54:27;;;;;;;6.78;3.95;;;;;;;;;;10593190;28;20073;-84
2022/04/11 07:59:28;;;;;;;;;;;;;;;;;;10596414;28;20084;-84
2022/04/11 08:04:29;;;;;;;5.07;2.50;;;;;;;;;;10596472;28;19904;-84
2022/04/11 08:09:30;;;;;;;3.85;2.42;;;;;;;;;;10601504;28;20027;-83
2022/04/11 08:14:32;;;;;;;;;;;;;;;;;;10603673;28;20434;-83
2022/04/11 08:19:33;;;;;;;4.18;2.10;;;;;;;;;;10616539;28;19892;-82
2022/04/11 08:24:34;;;;;;;3.80;1.98;;;;;;;;;;10634974;28;20031;-81
2022/04/11 08:29:35;;;;;;;6.68;2.50;;;;;;;;;;10620174;28;20039;-83
2022/04/11 08:34:36;;;;;;;3.92;1.90;;;;;;;;;;10595474;28;20027;-82
2022/04/11 08:39:38;;;;;;;;;;;;;;;;;;10593805;28;20130;-82
2022/04/11 08:44:39;;;;;;;;;;;;;;;;;;10596655;28;19950;-82
2022/04/11 08:49:40;;;;;;;3.92;2.08;;;;;;;;;;10598290;28;19930;-82
2022/04/11 08:54:42;;;;;;;3.95;2.10;;;;;;;;;;10602389;28;20055;-82
2022/04/11 08:59:43;;;;;;;3.38;1.73;;;;;;;;;;10613711;28;20413;-81
2022/04/11 09:04:44;;;;;;;;;;;;;;;;;;10600210;28;20135;-82
2022/04/11 09:09:45;;;;;;;5.22;1.95;;;;;;;;;;10599100;28;20374;-82
2022/04/11 09:14:54;;;;;;;3.72;2.15;;;;;;;;;;10598191;28;20073;-84
2022/04/11 09:20:06;;;;;;;3.17;2.38;;;;;;;;;;10599472;28;20053;-83
2022/04/11 09:25:08;;;;;;;5.40;2.22;;;;;;;;;;10618822;28;20024;-83
2022/04/11 09:30:23;;;;;;;3.65;1.67;;;;;;;;;;10615102;28;20042;-82
2022/04/11 09:35:25;;;;;;;4.03;2.35;;;;;;;;;;10608357;28;20061;-83
2022/04/11 09:40:26;;;;;;;3.63;2.35;;;;;;;;;;10602270;28;20450;-83
2022/04/11 09:45:27;;;;;;;4.63;2.47;;;;;;;;;;10597858;28;20032;-83
2022/04/11 09:50:29;;;;;;;2.50;1.80;;;;;;;;;;10597616;28;20512;-84
2022/04/11 09:55:31;;;;;;;4.40;2.15;;;;;;;;;;10593953;28;20049;-83
2022/04/11 10:00:39;;;;;;;3.90;1.70;;;;;;;;;;10594358;28;20481;-83
2022/04/11 10:05:40;;;;;;;5.57;2.63;;;;;;;;;;10595225;28;20481;-83
2022/04/11 10:10:42;;;;;;;3.33;1.70;;;;;;;;;;10593605;28;20473;-83
2022/04/11 10:15:46;;;;;;;3.00;1.60;;;;;;;;;;10594045;28;20046;-82
2022/04/11 10:20:49;;;;;;;5.10;2.22;;;;;;;;;;10593058;28;20485;-82
2022/04/11 10:25:51;;;;;;;5.35;2.35;;;;;;;;;;10593987;28;20043;-84
2022/04/11 10:31:06;;;;;;;3.97;2.47;;;;;;;;;;10592912;28;20111;-79
2022/04/11 10:36:26;;;;;;;3.30;1.60;;;;;;;;;;10584799;28;20020;-79
2022/04/11 10:41:46;;;;;;;4.87;2.10;;;;;;;;;;10593860;28;20031;-79
2022/04/11 10:47:06;;;;;;;5.15;2.65;;;;;;;;;;10596200;28;20265;-78
2022/04/11 10:52:25;;;;;;;4.15;1.85;;;;;;;;;;10603491;28;20036;-78
2022/04/11 10:57:40;;;;;;;4.35;1.50;;;;;;;;;;10605840;28;20077;-79
2022/04/11 11:08:12;;;;;;;3.95;2.00;;;;;;;;;;10607239;28;20111;-83
2022/04/11 11:13:31;;;;;;;5.45;2.22;;;;;;;;;;10602774;28;20418;-83
2022/04/11 11:19:05;;;;;;;4.40;2.50;;;;;;;;;;10618305;28;20069;-83
2022/04/11 11:24:07;;;;;;;5.60;2.40;;;;;;;;;;10603758;28;20052;-83
2022/04/11 11:29:15;;;;;;;2.58;1.70;;;;;;;;;;10606147;28;20027;-83
2022/04/11 11:34:21;;;;;;;5.90;3.70;;;;;;;;;;10604629;28;20056;-85
2022/04/11 11:39:22;;;;;;;4.20;2.28;;;;;;;;;;10603854;28;20059;-84
2022/04/11 11:44:27;;;;;;;5.00;2.65;;;;;;;;;;10607147;28;20036;-84
2022/04/11 11:49:28;;;;;;;4.93;2.60;;;;;;;;;;10606610;28;20046;-85
2022/04/11 11:54:33;;;;;;;4.88;2.47;;;;;;;;;;10608498;28;20079;-84
2022/04/11 11:59:46;;;;;;;5.05;2.70;;;;;;;;;;10603646;28;20060;-85
2022/04/11 12:04:47;;;;;;;5.13;2.70;;;;;;;;;;10604522;28;20028;-85
2022/04/11 12:09:49;;;;;;;4.85;3.15;;;;;;;;;;10603448;28;20028;-85
2022/04/11 12:15:14;;;;;;;3.83;2.60;;;;;;;;;;10611056;28;20035;-85
2022/04/11 12:20:17;;;;;;;4.07;2.90;;;;;;;;;;10626731;28;20075;-86
2022/04/11 12:25:21;;;;;;;4.07;2.40;;;;;;;;;;10620876;28;20010;-86
2022/04/11 12:30:22;;;;;;;5.30;3.00;;;;;;;;;;10609792;28;20058;-85
2022/04/11 12:35:23;;;;;;;6.07;2.58;;;;;;;;;;10606010;28;20032;-84
2022/04/11 12:40:42;;;;;;;6.55;3.00;;;;;;;;;;10604850;28;20572;-84
2022/04/11 12:45:59;;;;;;;4.82;3.40;;;;;;;;;;10610755;28;20027;-85
2022/04/11 12:51:15;;;;;;;6.15;3.83;;;;;;;;;;10619008;28;20028;-85
2022/04/11 12:56:17;;;;;;;9.13;6.53;;;;;;;;;;10614285;28;20034;-85
2022/04/11 13:01:18;;;;;;;5.70;3.80;;;;;;;;;;10603321;28;20032;-85
2022/04/11 13:06:19;;;;;;;3.53;2.67;;;;;;;;;;10605265;28;20037;-85
2022/04/11 13:11:20;;;;;;;3.90;2.60;;;;;;;;;;10610798;28;20039;-85
2022/04/11 13:21:53;;;;;;;3.78;2.65;;;;;;;;;;10604050;28;20114;-85
2022/04/11 13:27:16;;;;;;;4.18;2.20;;;;;;;;;;10602376;28;20036;-85
2022/04/11 13:32:17;;;;;;;5.65;2.97;;;;;;;;;;10596217;28;20393;-85
2022/04/11 13:37:19;;;;;;;5.85;3.95;;;;;;;;;;10599410;28;20030;-79
2022/04/11 13:42:22;;;;;;;4.93;2.58;;;;;;;;;;10597812;28;20516;-83
2022/04/11 13:47:27;;;;;;;5.28;2.63;;;;;;;;;;10597524;28;20027;-83
2022/04/11 13:52:30;;;;;;;3.92;2.63;;;;;;;;;;10592050;28;20083;-83
2022/04/11 13:57:31;;;;;;;8.65;3.50;;;;;;;;;;10594787;28;20140;-80
2022/04/11 14:02:34;;;;;;;3.97;2.42;;;;;;;;;;10595646;28;20101;-82
2022/04/11 14:07:35;;;;;;;6.13;3.33;;;;;;;;;;10596165;28;20023;-83
2022/04/11 14:12:37;;;;;;;4.85;2.88;;;;;;;;;;10592547;28;20024;-83
2022/04/11 14:17:38;;;;;;;12.57;8.43;;;;;;;;;;10603106;28;20028;-82
2022/04/11 14:22:46;;;;;;;5.35;3.42;;;;;;;;;;10598391;28;20080;-83
2022/04/11 14:27:47;;;;;;;4.05;2.45;;;;;;;;;;10600311;28;20027;-82
2022/04/11 14:32:54;;;;;;;3.28;2.42;;;;;;;;;;10596924;28;20335;-83
2022/04/11 14:37:58;;;;;;;3.28;2.17;;;;;;;;;;10602460;28;20053;-84
2022/04/11 14:43:04;;;;;;;3.72;2.20;;;;;;;;;;10605296;27;20047;-84
2022/04/11 14:48:08;;;;;;;4.45;2.33;;;;;;;;;;10618399;28;20091;-83
2022/04/11 14:53:37;;;;;;;4.50;2.45;;;;;;;;;;10617704;28;20031;-84
2022/04/11 14:58:38;;;;;;;3.55;2.40;;;;;;;;;;10603119;28;20033;-82
2022/04/11 15:03:40;;;;;;;3.63;2.10;;;;;;;;;;10600937;28;20036;-82
2022/04/11 15:08:41;;;;;;;2.65;1.70;;;;;;;;;;10609546;28;20027;-81
2022/04/11 15:13:43;;;;;;;2.80;1.88;;;;;;;;;;10623633;28;20092;-83
2022/04/11 15:18:52;;;;;;;5.28;2.50;;;;;;;;;;10620016;28;20028;-81
2022/04/11 15:23:54;;;;;;;4.50;2.83;;;;;;;;;;10608133;28;20090;-83
2022/04/11 15:28:55;;;;;;;5.80;3.72;;;;;;;;;;10607817;28;20037;-83
2022/04/11 15:33:57;;;;;;;4.78;2.28;;;;;;;;;;10606303;28;20023;-81
2022/04/11 15:39:01;;;;;;;2.45;1.88;;;;;;;;;;10604869;28;20058;-81
2022/04/11 15:44:03;;;;;;;4.93;2.17;;;;;;;;;;10606037;27;20028;-81
2022/04/11 15:49:04;;;;;;;6.45;3.30;;;;;;;;;;10602356;28;20474;-82
2022/04/11 15:54:05;;;;;;;4.45;2.85;;;;;;;;;;10600249;28;20055;-85
2022/04/11 15:59:06;;;;;;;6.57;3.40;;;;;;;;;;10600946;28;20042;-84
2022/04/11 16:04:08;;;;;;;8.88;6.30;;;;;;;;;;10602217;28;20059;-84
2022/04/11 16:09:10;;;;;;;9.93;7.18;;;;;;;;;;10603503;28;20020;-83
2022/04/11 16:14:11;;;;;;;6.22;4.28;;;;;;;;;;10613556;28;20023;-82
2022/04/11 16:19:13;;;;;;;5.25;3.78;;;;;;;;;;10621592;28;20102;-79
